Time;durP1;ratioP1;P1;durP2;ratioP2;P2;SDS_P1;SDS_P2;PMS_P1;PMS_P2;Temp;Humidity;BMP_temperature;BMP_pressure;BME280_temperature;BME280_humidity;BME280_pressure;Samples;Min_cycle;Max_cycle;Signal;HPM_P1;HPM_P2
2022/08/12 00:43:35;;;;;;;3.42;2.77;;;;;;;10.46;74.74;100538.08;1657700;83;20976;-60
2022/08/12 00:48:48;;;;;;;9.30;3.33;;;;;;;10.45;74.88;100539.84;1652726;85;21017;-61
2022/08/12 00:51:16;;;;;;;6.37;2.77;;;;;;;10.46;75.08;100544.14;1668346;85;21857;-60
2022/08/12 00:53:43;;;;;;;5.25;2.95;;;;;;;10.48;75.27;100537.12;1673075;84;20845;-61
2022/08/12 00:56:09;;;;;;;4.70;2.70;;;;;;;10.47;75.33;100535.42;1666805;85;20958;-61
2022/08/12 00:58:41;;;;;;;5.03;3.22;;;;;;;10.43;75.37;100539.03;1675051;85;21016;-61
2022/08/12 01:01:08;;;;;;;5.03;3.40;;;;;;;10.53;76.33;100539.59;1678251;84;20935;-61
2022/08/12 01:11:55;;;;;;;4.25;2.98;;;;;;;11.02;76.89;100529.17;1675889;84;20946;-61
2022/08/12 01:14:24;;;;;;;7.50;3.27;;;;;;;11.05;76.82;100523.83;1649540;85;21467;-61
2022/08/12 01:16:54;;;;;;;4.78;3.40;;;;;;;11.07;76.76;100524.63;1653007;85;21128;-61
2022/08/12 01:19:23;;;;;;;4.72;3.08;;;;;;;11.08;76.84;100523.70;1654798;85;20993;-61
2022/08/12 01:22:35;;;;;;;3.80;2.90;;;;;;;11.03;76.67;100523.02;1671334;84;20952;-61
2022/08/12 01:25:17;;;;;;;4.25;3.12;;;;;;;11.03;76.86;100525.63;1678044;84;21492;-61
2022/08/12 01:27:46;;;;;;;3.72;2.72;;;;;;;11.06;77.19;100528.13;1692568;83;21538;-61
2022/08/12 01:30:14;;;;;;;7.20;3.45;;;;;;;11.12;77.44;100531.86;1663754;84;21159;-61
2022/08/12 01:32:44;;;;;;;4.22;3.42;;;;;;;11.16;77.47;100529.52;1681129;84;20933;-61
2022/08/12 01:35:20;;;;;;;6.87;3.45;;;;;;;11.17;77.50;100533.82;1677736;85;21247;-61
2022/08/12 01:38:01;;;;;;;6.22;3.37;;;;;;;11.20;77.60;100533.70;1650473;85;21436;-61
2022/08/12 01:40:32;;;;;;;4.45;3.08;;;;;;;11.15;77.34;100535.66;1654770;85;20993;-61
2022/08/12 01:43:09;;;;;;;5.78;3.30;;;;;;;11.16;77.93;100534.73;1655757;85;21250;-61
2022/08/12 01:45:41;;;;;;;4.37;3.12;;;;;;;11.22;78.19;100531.89;1652202;84;20930;-61
2022/08/12 01:48:39;;;;;;;4.30;3.05;;;;;;;11.29;78.43;100533.38;1653242;84;20889;-61
2022/08/12 01:51:30;;;;;;;4.58;3.15;;;;;;;11.36;78.55;100530.92;1686996;84;20988;-61
2022/08/12 01:54:11;;;;;;;5.37;3.50;;;;;;;11.46;78.62;100530.14;1607276;87;21475;-61
2022/08/12 01:57:11;;;;;;;5.35;3.30;;;;;;;11.50;78.72;100529.55;1572323;90;21196;-61
2022/08/12 01:59:58;;;;;;;5.08;3.20;;;;;;;11.53;78.67;100522.89;1596160;88;20981;-61
2022/08/12 02:02:30;;;;;;;6.70;3.62;;;;;;;11.51;78.61;100524.70;1585598;88;20881;-61
2022/08/12 02:11:35;;;;;;;6.78;3.90;;;;;;;11.46;79.09;100527.52;1590296;88;21256;-61
2022/08/12 02:14:30;;;;;;;5.42;3.77;;;;;;;11.51;79.21;100524.70;1609057;88;21011;-61
2022/08/12 02:17:17;;;;;;;3.70;3.30;;;;;;;11.48;79.21;100523.06;1601226;88;20873;-61
2022/08/12 02:20:04;;;;;;;4.10;2.83;;;;;;;11.45;79.19;100522.34;1594090;88;21442;-62
2022/08/12 02:22:39;;;;;;;8.13;4.12;;;;;;;11.45;79.31;100526.26;1588994;88;21038;-61
2022/08/12 02:25:22;;;;;;;4.33;3.27;;;;;;;11.39;79.24;100523.42;1611219;88;21209;-61
2022/08/12 02:27:51;;;;;;;5.50;3.55;;;;;;;11.32;79.15;100525.42;1603727;88;21493;-61
2022/08/12 02:30:23;;;;;;;4.72;3.58;;;;;;;11.34;79.81;100522.73;1633531;85;20980;-61
2022/08/12 02:32:52;;;;;;;4.75;3.33;;;;;;;11.36;79.68;100527.00;1655217;85;21528;-60
2022/08/12 02:35:23;;;;;;;4.90;3.87;;;;;;;11.37;79.72;100528.72;1662702;85;20921;-61
2022/08/12 02:37:54;;;;;;;6.12;3.72;;;;;;;11.41;80.05;100521.61;1647731;85;21030;-61
2022/08/12 02:40:23;;;;;;;6.70;4.20;;;;;;;11.51;80.30;100522.09;1659264;84;21485;-61
2022/08/12 02:43:01;;;;;;;4.78;3.55;;;;;;;11.57;80.30;100524.50;1665552;84;21342;-61
2022/08/12 02:45:50;;;;;;;4.37;3.45;;;;;;;11.57;80.19;100527.12;1653032;85;21486;-61
2022/08/12 02:48:30;;;;;;;6.85;4.05;;;;;;;11.60;80.55;100536.15;1669889;85;21633;-61
2022/08/12 02:51:02;;;;;;;4.10;3.67;;;;;;;11.67;80.58;100536.30;1658475;85;21077;-61
2022/08/12 02:53:31;;;;;;;8.28;3.58;;;;;;;11.73;80.83;100536.05;1678321;85;21502;-60
2022/08/12 02:56:02;;;;;;;4.70;3.85;;;;;;;11.78;80.93;100539.34;1653170;85;20946;-61
2022/08/12 02:58:35;;;;;;;7.87;3.83;;;;;;;11.79;80.71;100537.57;1630181;85;20941;-61
2022/08/12 03:01:07;;;;;;;6.90;3.52;;;;;;;11.76;80.65;100530.72;1642012;85;20893;-61
2022/08/12 03:03:34;;;;;;;4.90;3.65;;;;;;;11.78;80.99;100531.48;1665287;84;21057;-61
2022/08/12 03:06:09;;;;;;;5.92;3.25;;;;;;;11.83;81.17;100526.94;1664561;84;20966;-61
2022/08/12 03:08:42;;;;;;;4.60;3.42;;;;;;;11.88;81.32;100537.72;1681219;84;20917;-61
2022/08/12 03:11:19;;;;;;;6.58;4.22;;;;;;;11.91;81.38;100538.45;1672368;84;20968;-61
2022/08/12 03:13:53;;;;;;;5.47;4.08;;;;;;;11.94;81.50;100533.55;1626147;86;20941;-61
2022/08/12 03:16:20;;;;;;;6.20;3.95;;;;;;;11.93;81.42;100534.44;1643270;86;21126;-61
2022/08/12 03:18:48;;;;;;;7.55;4.35;;;;;;;11.95;81.56;100530.01;1693086;84;20934;-61
2022/08/12 03:21:17;;;;;;;8.15;4.42;;;;;;;11.97;81.62;100532.96;1694638;83;21657;-61
2022/08/12 03:23:46;;;;;;;9.30;4.10;;;;;;;12.00;81.70;100533.30;1682268;84;20942;-61
2022/08/12 03:26:14;;;;;;;25.45;6.33;;;;;;;11.99;81.46;100535.53;1681623;83;21024;-61
2022/08/12 03:28:52;;;;;;;32.42;7.70;;;;;;;11.96;81.37;100540.42;1691043;82;21130;-61
2022/08/12 03:31:32;;;;;;;49.20;8.88;;;;;;;11.95;81.58;100535.24;1673249;85;21000;-61
2022/08/12 03:34:08;;;;;;;28.07;6.40;;;;;;;12.05;81.92;100532.66;1651105;85;20940;-61
2022/08/12 03:36:39;;;;;;;12.25;5.65;;;;;;;12.12;82.05;100538.02;1666950;85;20886;-62
2022/08/12 03:41:47;;;;;;;;;;;;;;;12.68;83.42;100533.48;1656485;85;21050;-61
2022/08/12 04:01:51;;;;;;;36.68;8.00;;;;;;;18.58;80.56;100516.83;1655287;84;20941;-62
2022/08/12 04:04:16;;;;;;;46.98;7.67;;;;;;;19.32;80.27;100512.08;1628617;85;20937;-63
2022/08/12 04:06:46;;;;;;;;;;;;;;;20.08;80.23;100506.16;1630508;86;20956;-63
2022/08/12 04:09:12;;;;;;;36.08;7.62;;;;;;;20.79;79.29;100505.67;1660457;85;21063;-63
2022/08/12 04:14:27;;;;;;;9.35;3.00;;;;;;;21.90;78.07;100503.02;1686853;83;21099;-62
2022/08/12 04:16:56;;;;;;;10.48;2.87;;;;;;;22.33;77.17;100504.81;1671433;84;20946;-63
2022/08/12 04:19:23;;;;;;;19.02;4.62;;;;;;;22.78;77.11;100503.19;1670826;84;20928;-63
2022/08/12 04:21:51;;;;;;;21.75;4.65;;;;;;;23.36;77.01;100505.30;1673815;84;21854;-63
2022/08/12 04:24:20;;;;;;;21.93;4.42;;;;;;;23.73;75.80;100506.03;1673030;84;21393;-63
2022/08/12 04:26:47;;;;;;;8.35;3.47;;;;;;;24.17;75.52;100508.66;1676575;85;21009;-63
2022/08/12 04:29:13;;;;;;;;;;;;;;;24.58;74.72;100505.31;1676698;84;21004;-63
2022/08/12 04:31:43;;;;;;;7.17;2.92;;;;;;;24.87;73.43;100505.25;1675124;85;20127;-62
2022/08/12 04:34:10;;;;;;;7.65;2.33;;;;;;;25.17;73.32;100502.81;1672610;85;21062;-62
2022/08/12 04:36:40;;;;;;;5.58;2.08;;;;;;;25.52;72.86;100502.58;1672336;84;20938;-63
2022/08/12 04:39:09;;;;;;;6.30;2.60;;;;;;;25.73;72.19;100500.11;1671250;84;20989;-63
2022/08/12 04:41:37;;;;;;;4.47;2.35;;;;;;;25.96;71.64;100505.37;1667369;84;21441;-63
2022/08/12 04:44:05;;;;;;;7.53;1.92;;;;;;;26.20;70.75;100499.91;1675014;84;20900;-63
2022/08/12 04:46:32;;;;;;;4.65;1.95;;;;;;;26.38;70.02;100501.20;1674079;84;21084;-62
2022/08/12 04:49:01;;;;;;;11.65;2.90;;;;;;;26.53;69.40;100500.53;1673681;84;20958;-63
2022/08/12 04:51:28;;;;;;;6.78;1.85;;;;;;;26.79;69.33;100505.03;1678280;84;20960;-63
2022/08/12 04:53:55;;;;;;;7.40;2.05;;;;;;;27.03;68.12;100505.68;1679748;84;20920;-63
2022/08/12 04:56:22;;;;;;;7.00;2.27;;;;;;;27.18;67.45;100496.55;1674255;84;21084;-64
2022/08/12 04:58:49;;;;;;;9.50;2.50;;;;;;;27.40;67.05;100501.33;1671452;84;21865;-63
2022/08/12 05:01:17;;;;;;;10.78;2.70;;;;;;;27.67;66.74;100499.37;1678514;84;21430;-63
2022/08/12 05:03:43;;;;;;;8.43;2.40;;;;;;;27.95;65.78;100503.14;1681546;84;21505;-63
2022/08/12 05:06:10;;;;;;;9.88;2.27;;;;;;;28.22;65.70;100505.50;1677395;85;20924;-64
2022/08/12 05:08:37;;;;;;;6.47;2.27;;;;;;;28.36;64.36;100506.67;1664727;84;20938;-64
2022/08/12 05:11:05;;;;;;;7.65;2.25;;;;;;;28.39;63.53;100513.55;1667256;84;21923;-63
2022/08/12 05:13:36;;;;;;;13.75;3.10;;;;;;;28.51;63.17;100513.56;1670467;84;21125;-63
2022/08/12 05:16:04;;;;;;;6.08;2.08;;;;;;;28.61;62.68;100500.80;1668514;84;20938;-64
2022/08/12 05:18:36;;;;;;;2.55;1.80;;;;;;;28.72;62.04;100511.19;1690434;84;21476;-63
2022/08/12 05:21:06;;;;;;;5.35;1.85;;;;;;;28.92;61.80;100508.95;1690332;83;20978;-63
2022/08/12 05:23:38;;;;;;;9.58;2.20;;;;;;;29.13;61.14;100516.48;1668116;84;21043;-64
2022/08/12 05:26:05;;;;;;;12.55;2.37;;;;;;;29.42;61.33;100502.39;1664307;84;21487;-64
2022/08/12 05:28:32;;;;;;;9.30;2.35;;;;;;;29.78;60.53;100501.04;1659585;84;21566;-63
2022/08/12 05:31:02;;;;;;;6.33;1.47;;;;;;;29.99;59.56;100506.58;1654446;85;21059;-64
2022/08/12 05:33:39;;;;;;;9.78;1.80;;;;;;;30.54;59.88;100507.33;1665694;84;21005;-63
2022/08/12 05:35:59;;;;;;;7.58;2.00;;;;;;;30.56;57.63;100507.99;1660705;85;21149;-64
2022/08/12 05:41:19;;;;;;;16.48;2.33;;;;;;;30.28;56.53;100517.19;1692941;84;20909;-63
2022/08/12 05:43:49;;;;;;;6.22;2.10;;;;;;;30.04;55.64;100512.27;1665557;84;20946;-63
2022/08/12 05:46:16;;;;;;;15.15;2.85;;;;;;;29.94;55.34;100509.00;1679883;84;21436;-64
2022/08/12 05:48:43;;;;;;;8.73;2.17;;;;;;;29.96;54.74;100507.46;1682507;84;21216;-64
2022/08/12 05:51:10;;;;;;;13.25;2.47;;;;;;;30.18;54.56;100515.20;1695882;83;21001;-63
2022/08/12 05:53:38;;;;;;;9.50;2.60;;;;;;;30.33;53.91;100513.41;1695948;83;20890;-63
2022/08/12 05:56:06;;;;;;;15.00;2.15;;;;;;;30.55;53.58;100515.22;1674310;84;20918;-64
2022/08/12 05:58:33;;;;;;;32.67;3.33;;;;;;;30.81;52.84;100517.18;1670448;85;21049;-64
2022/08/12 06:01:00;;;;;;;25.17;3.05;;;;;;;30.88;52.40;100516.27;1696794;83;21189;-63
2022/08/12 06:03:27;;;;;;;9.53;1.65;;;;;;;31.06;52.05;100516.39;1696624;84;20888;-62
2022/08/12 06:05:55;;;;;;;4.58;1.20;;;;;;;31.28;51.56;100515.44;1638876;86;20905;-64
2022/08/12 06:08:24;;;;;;;7.15;1.20;;;;;;;31.41;51.07;100515.64;1666614;85;20969;-64
2022/08/12 06:10:51;;;;;;;8.13;1.75;;;;;;;31.48;50.22;100517.58;1624909;86;20952;-63
2022/08/12 06:13:18;;;;;;;7.45;1.80;;;;;;;31.37;49.70;100515.70;1662539;84;21746;-63
2022/08/12 06:15:44;;;;;;;9.40;1.25;;;;;;;31.40;49.34;100522.07;1652097;84;21010;-62
2022/08/12 06:18:12;;;;;;;3.70;0.98;;;;;;;31.33;48.79;100513.02;1630427;86;21002;-63
2022/08/12 06:20:39;;;;;;;4.95;1.27;;;;;;;31.26;48.08;100514.81;1630168;86;20959;-61
2022/08/12 06:23:06;;;;;;;3.83;1.27;;;;;;;31.31;47.99;100522.31;1658804;85;21400;-62
2022/08/12 06:25:33;;;;;;;6.90;1.55;;;;;;;31.38;47.42;100520.06;1654347;85;21073;-62
2022/08/12 06:28:02;;;;;;;10.60;1.55;;;;;;;31.29;46.85;100522.52;1657254;85;21525;-61
2022/08/12 06:30:33;;;;;;;3.55;1.10;;;;;;;31.24;46.75;100517.38;1653258;85;21594;-61
2022/08/12 06:32:57;;;;;;;5.80;1.30;;;;;;;31.43;46.54;100516.30;1653361;85;20966;-61
2022/08/12 06:35:26;;;;;;;4.47;1.35;;;;;;;31.59;46.01;100517.94;1654619;86;21424;-61
2022/08/12 06:37:58;;;;;;;4.67;1.15;;;;;;;31.69;45.51;100521.66;1678099;84;21060;-61
2022/08/12 06:43:08;;;;;;;5.15;0.98;;;;;;;31.89;44.84;100514.59;1667386;84;20976;-61
2022/08/12 06:45:43;;;;;;;4.70;1.45;;;;;;;31.76;44.41;100521.23;1667575;83;20881;-61
2022/08/12 06:48:07;;;;;;;21.17;1.45;;;;;;;31.86;44.13;100520.91;1692979;84;20974;-63
2022/08/12 06:50:34;;;;;;;7.05;1.12;;;;;;;31.99;43.67;100513.50;1690188;83;21883;-62
2022/08/12 06:53:04;;;;;;;5.42;1.20;;;;;;;31.97;43.33;100508.80;1663019;84;20927;-62
2022/08/12 06:55:29;;;;;;;3.60;1.07;;;;;;;32.09;43.01;100509.94;1665380;84;21512;-62
2022/08/12 06:58:00;;;;;;;6.03;1.07;;;;;;;32.27;42.60;100507.61;1665077;84;20911;-63
2022/08/12 07:00:32;;;;;;;1.57;0.88;;;;;;;32.37;42.18;100511.84;1664944;84;20934;-63
2022/08/12 07:03:01;;;;;;;8.45;0.90;;;;;;;32.37;41.71;100509.13;1677609;84;21114;-62
2022/08/12 07:05:28;;;;;;;2.72;1.12;;;;;;;32.41;41.72;100511.26;1680249;84;21001;-62
2022/08/12 07:08:02;;;;;;;5.60;1.12;;;;;;;32.54;41.27;100509.19;1676773;84;20885;-63
2022/08/12 07:10:31;;;;;;;3.25;1.07;;;;;;;32.83;41.26;100508.67;1685100;84;21501;-62
2022/08/12 07:13:00;;;;;;;7.62;0.80;;;;;;;33.07;40.76;100520.88;1688498;84;21446;-62
2022/08/12 07:15:29;;;;;;;6.33;1.20;;;;;;;33.09;40.18;100522.35;1678306;84;21629;-62
2022/08/12 07:17:59;;;;;;;6.33;1.27;;;;;;;32.85;39.35;100515.52;1677012;85;21052;-62
2022/08/12 07:20:28;;;;;;;3.15;1.20;;;;;;;32.63;39.26;100522.89;1652673;85;21018;-62
2022/08/12 07:22:56;;;;;;;4.78;0.90;;;;;;;32.44;38.92;100518.14;1694129;84;21441;-62
2022/08/12 07:25:33;;;;;;;4.62;1.00;;;;;;;32.40;38.93;100520.90;1698930;84;20916;-62
2022/08/12 07:28:04;;;;;;;4.37;0.88;;;;;;;32.45;38.85;100511.69;1691515;84;21078;-61
2022/08/12 07:30:36;;;;;;;5.72;1.02;;;;;;;31.96;38.24;100492.25;1694531;83;20931;-60
2022/08/12 07:33:04;;;;;;;5.42;1.27;;;;;;;31.52;37.83;100512.13;1670990;85;20902;-60
2022/08/12 07:35:32;;;;;;;3.30;0.75;;;;;;;31.04;37.63;100515.25;1642086;85;20989;-61
2022/08/12 07:38:00;;;;;;;2.85;0.85;;;;;;;30.71;37.72;100509.34;1680007;84;20983;-61
2022/08/12 07:40:28;;;;;;;13.68;1.45;;;;;;;30.30;37.22;100508.39;1681645;84;21040;-61
2022/08/12 07:42:55;;;;;;;3.58;1.02;;;;;;;30.03;37.23;100505.22;1692577;84;20902;-60
2022/08/12 07:45:23;;;;;;;4.67;0.90;;;;;;;29.90;37.31;100504.98;1705943;84;20965;-60
2022/08/12 07:47:50;;;;;;;3.70;0.90;;;;;;;29.75;37.03;100504.92;1704391;83;20901;-60
2022/08/12 07:50:19;;;;;;;2.40;0.90;;;;;;;29.48;36.87;100506.22;1695884;82;20953;-60
2022/08/12 07:52:47;;;;;;;6.28;1.52;;;;;;;29.34;36.65;100502.42;1670052;84;21191;-60
2022/08/12 07:55:16;;;;;;;5.85;0.90;;;;;;;29.13;36.77;100501.69;1702327;83;20905;-60
2022/08/12 07:57:56;;;;;;;3.12;0.88;;;;;;;29.28;37.01;100508.52;1704766;84;20973;-60
2022/08/12 08:00:24;;;;;;;3.72;0.80;;;;;;;29.29;36.65;100509.34;1700176;82;21057;-59
2022/08/12 08:02:52;;;;;;;6.40;0.93;;;;;;;29.12;36.55;100510.75;1706213;82;20965;-58
2022/08/12 08:05:23;;;;;;;3.33;0.80;;;;;;;29.10;36.52;100508.77;1691861;84;21069;-59
2022/08/12 08:07:52;;;;;;;3.10;0.70;;;;;;;29.03;36.30;100513.14;1701042;83;20950;-60
2022/08/12 08:10:19;;;;;;;3.60;1.30;;;;;;;29.00;36.28;100511.61;1700441;82;21716;-60
2022/08/12 08:12:57;;;;;;;2.90;0.90;;;;;;;28.69;36.24;100506.16;1705352;84;20949;-60
2022/08/12 08:15:28;;;;;;;2.90;0.82;;;;;;;28.72;36.21;100508.50;1682146;85;20958;-60
2022/08/12 08:18:02;;;;;;;1.30;0.60;;;;;;;28.67;36.26;100512.20;1679172;85;21111;-60
2022/08/12 08:20:33;;;;;;;3.85;0.80;;;;;;;28.59;36.13;100505.49;1662742;85;21005;-60
2022/08/12 08:23:07;;;;;;;2.40;0.72;;;;;;;28.58;36.13;100509.20;1662838;85;21449;-60
2022/08/12 08:25:37;;;;;;;2.77;0.85;;;;;;;28.48;35.99;100513.91;1666488;85;20981;-60
2022/08/12 08:28:12;;;;;;;4.28;1.00;;;;;;;28.42;36.06;100514.55;1650053;86;21483;-60
2022/08/12 08:30:43;;;;;;;8.10;1.57;;;;;;;28.44;36.09;100509.89;1677617;85;21059;-60
2022/08/12 08:33:13;;;;;;;4.65;1.20;;;;;;;28.46;36.02;100511.91;1670847;84;21051;-60
2022/08/12 08:35:42;;;;;;;4.22;1.02;;;;;;;28.45;35.97;100522.30;1654601;84;20951;-60
2022/08/12 08:38:17;;;;;;;5.30;1.00;;;;;;;28.46;35.78;100515.95;1656572;85;20938;-58
2022/08/12 08:43:34;;;;;;;4.00;1.40;;;;;;;28.32;35.74;100515.58;1642864;85;21233;-60
2022/08/12 08:46:04;;;;;;;7.42;1.92;;;;;;;28.23;35.90;100512.57;1660261;85;20929;-60
2022/08/12 08:48:31;;;;;;;5.45;2.08;;;;;;;28.22;35.90;100510.87;1665066;85;21813;-60
2022/08/12 08:50:58;;;;;;;3.70;1.50;;;;;;;28.37;35.94;100511.53;1686188;84;20890;-59
2022/08/12 08:53:25;;;;;;;100.78;31.87;;;;;;;28.45;35.89;100506.19;1688556;84;20883;-60
2022/08/12 08:55:55;;;;;;;13.25;4.60;;;;;;;28.48;36.00;100500.47;1684341;83;21118;-60
2022/08/12 08:58:21;;;;;;;3.80;1.30;;;;;;;28.66;36.07;100503.81;1691157;83;20934;-60
2022/08/12 09:00:49;;;;;;;4.30;1.30;;;;;;;28.65;35.82;100504.83;1684417;84;20930;-59
2022/08/12 09:03:17;;;;;;;7.08;1.20;;;;;;;28.73;36.14;100502.10;1668084;84;20867;-60
2022/08/12 09:05:44;;;;;;;3.45;0.80;;;;;;;28.76;35.80;100504.47;1651081;85;20973;-60
2022/08/12 09:08:11;;;;;;;8.13;1.37;;;;;;;28.76;35.96;100499.10;1687409;84;21884;-60
2022/08/12 09:10:38;;;;;;;1.72;0.95;;;;;;;28.65;35.85;100502.15;1684046;84;21004;-60
2022/08/12 09:15:51;;;;;;;6.03;1.30;;;;;;;28.50;35.75;100495.78;1676997;84;20973;-60
2022/08/12 09:18:18;;;;;;;2.92;1.42;;;;;;;28.43;35.65;100493.42;1657006;85;20914;-60
2022/08/12 09:20:49;;;;;;;7.95;2.00;;;;;;;28.48;35.68;100493.76;1678056;83;21185;-60
2022/08/12 09:23:21;;;;;;;4.70;1.40;;;;;;;28.46;35.82;100491.77;1688376;84;21077;-60
2022/08/12 09:25:48;;;;;;;5.92;1.52;;;;;;;28.56;35.84;100491.06;1675769;83;20939;-60
2022/08/12 09:28:15;;;;;;;5.40;1.55;;;;;;;28.74;35.82;100490.36;1653814;85;21488;-61
2022/08/12 09:30:47;;;;;;;4.95;1.30;;;;;;;28.73;35.62;100493.20;1650187;85;20945;-61
2022/08/12 09:33:14;;;;;;;4.87;1.10;;;;;;;28.48;35.30;100489.73;1671608;84;22032;-60
2022/08/12 09:35:42;;;;;;;5.58;1.27;;;;;;;28.34;34.91;100495.25;1681362;83;21548;-59
2022/08/12 09:38:16;;;;;;;4.75;1.12;;;;;;;28.20;35.49;100492.73;1679844;84;20951;-61
2022/08/12 09:40:44;;;;;;;8.65;1.30;;;;;;;28.32;35.69;100486.04;1671361;84;20944;-61
2022/08/12 09:45:56;;;;;;;3.37;1.32;;;;;;;28.72;34.72;100469.53;1673611;84;21073;-61
2022/08/12 09:48:23;;;;;;;7.78;1.70;;;;;;;28.44;34.87;100479.84;1649969;85;21451;-61
2022/08/12 09:50:50;;;;;;;3.77;1.05;;;;;;;28.23;34.82;100484.37;1669117;84;21006;-61
2022/08/12 09:53:23;;;;;;;5.08;1.57;;;;;;;28.12;34.68;100494.11;1649230;85;20968;-61
2022/08/12 09:55:57;;;;;;;3.25;1.20;;;;;;;28.03;34.46;100481.16;1671537;84;21475;-61
2022/08/12 09:58:29;;;;;;;5.80;1.45;;;;;;;27.94;34.19;100484.02;1649873;85;21059;-61
2022/08/12 10:01:03;;;;;;;5.50;1.25;;;;;;;27.73;34.37;100490.69;1649149;85;21009;-61
2022/08/12 10:03:28;;;;;;;2.58;0.90;;;;;;;27.73;34.57;100490.69;1662718;84;20939;-61
2022/08/12 10:05:56;;;;;;;3.75;1.45;;;;;;;27.83;34.43;100488.70;1667471;84;20938;-59
2022/08/12 10:08:26;;;;;;;2.33;0.82;;;;;;;27.78;34.16;100482.95;1668271;84;20946;-59
2022/08/12 10:13:43;;;;;;;34.58;2.80;;;;;;;27.78;34.38;100484.30;1676266;84;20883;-61
2022/08/12 10:16:32;;;;;;;5.37;1.40;;;;;;;27.88;34.36;100476.97;1676827;83;20892;-60
2022/08/12 10:18:58;;;;;;;8.13;1.20;;;;;;;27.92;34.26;100486.03;1656974;85;21488;-61
2022/08/12 10:21:35;;;;;;;5.03;1.60;;;;;;;27.94;34.22;100477.31;1655315;85;21448;-62
2022/08/12 10:24:02;;;;;;;4.57;1.20;;;;;;;27.90;34.18;100480.84;1671047;85;21160;-62
2022/08/12 10:31:59;;;;;;;5.87;1.52;;;;;;;28.07;34.12;100471.78;1670940;84;21479;-62
2022/08/12 10:34:25;;;;;;;;;;;;;;;27.87;34.05;100470.45;1673579;84;20928;-62
2022/08/12 10:36:57;;;;;;;5.85;0.93;;;;;;;27.91;34.09;100463.72;1620356;86;21125;-62
2022/08/12 10:39:31;;;;;;;5.70;1.57;;;;;;;27.98;34.06;100464.75;1646957;85;21521;-61
2022/08/12 10:44:48;;;;;;;5.03;1.07;;;;;;;28.05;34.25;100459.53;1659532;85;20931;-62
2022/08/12 10:47:15;;;;;;;6.67;1.85;;;;;;;28.14;34.34;100458.52;1681312;82;21683;-62
2022/08/12 10:49:43;;;;;;;4.30;1.40;;;;;;;28.32;34.44;100456.50;1673236;84;20994;-63
2022/08/12 10:52:11;;;;;;;4.40;1.12;;;;;;;28.41;34.53;100451.12;1673142;84;20958;-61
2022/08/12 10:54:39;;;;;;;11.18;1.70;;;;;;;28.53;34.68;100447.08;1695333;84;20923;-62
2022/08/12 10:57:08;;;;;;;7.22;1.50;;;;;;;28.59;34.48;100447.73;1690614;83;20930;-62
2022/08/12 10:59:35;;;;;;;4.35;1.40;;;;;;;28.48;34.32;100438.69;1658757;85;21010;-62
2022/08/12 11:02:02;;;;;;;7.58;1.57;;;;;;;28.36;34.25;100442.73;1689795;83;21002;-63
2022/08/12 11:04:29;;;;;;;;;;;;;;;28.37;34.16;100433.65;1663036;85;20936;-62
2022/08/12 11:06:57;;;;;;;5.20;1.42;;;;;;;28.30;34.30;100434.34;1673953;84;20093;-62
2022/08/12 11:09:29;;;;;;;4.17;1.65;;;;;;;28.21;34.10;100421.11;1688983;83;20919;-62
2022/08/12 11:11:55;;;;;;;11.68;1.35;;;;;;;28.14;34.23;100420.93;1662517;85;20945;-62
2022/08/12 11:14:27;;;;;;;;;;;;;;;28.10;34.15;100424.98;1683766;84;21087;-63
2022/08/12 11:16:56;;;;;;;11.33;1.60;;;;;;;28.06;34.16;100424.48;1676951;84;20129;-63
2022/08/12 11:19:19;;;;;;;6.33;1.70;;;;;;;28.01;34.20;100423.31;1670798;84;20970;-63
2022/08/12 11:21:46;;;;;;;14.23;1.70;;;;;;;28.06;34.23;100418.25;1662109;85;20962;-63
2022/08/12 11:24:13;;;;;;;2.33;1.05;;;;;;;28.10;34.22;100419.61;1677895;84;21002;-63
2022/08/12 11:26:39;;;;;;;6.72;1.62;;;;;;;28.12;34.12;100417.59;1674732;84;21760;-63
2022/08/12 11:29:06;;;;;;;9.65;1.47;;;;;;;27.98;33.99;100418.25;1662054;85;20984;-63
2022/08/12 11:31:32;;;;;;;5.08;1.30;;;;;;;27.93;34.13;100415.27;1653226;85;20972;-63
2022/08/12 11:33:59;;;;;;;;;;;;;;;27.99;34.29;100419.95;1670611;84;20938;-63
2022/08/12 11:36:25;;;;;;;8.83;2.33;;;;;;;28.07;34.21;100412.73;1668011;84;20135;-62
2022/08/12 11:38:53;;;;;;;;;;;;;;;28.02;34.04;100416.92;1677832;84;21879;-63
2022/08/12 11:41:20;;;;;;;4.22;1.15;;;;;;;27.97;33.89;100419.27;1667307;85;20455;-63
2022/08/12 11:43:47;;;;;;;6.67;1.25;;;;;;;27.82;33.82;100418.61;1673522;84;20878;-63
2022/08/12 11:46:14;;;;;;;4.97;1.32;;;;;;;27.76;33.86;100412.55;1661755;85;20918;-63
2022/08/12 11:48:40;;;;;;;;;;;;;;;27.71;33.76;100414.05;1679154;83;21294;-63
2022/08/12 11:51:07;;;;;;;;;;;;;;;27.67;33.75;100411.70;1665118;85;21206;-63
2022/08/12 11:53:35;;;;;;;6.58;1.17;;;;;;;27.75;33.68;100414.04;1670388;85;20738;-62
2022/08/12 11:56:08;;;;;;;8.70;1.52;;;;;;;27.69;33.74;100419.56;1672464;85;20888;-62
2022/08/12 11:58:36;;;;;;;5.28;1.57;;;;;;;27.72;33.62;100411.19;1672223;84;20944;-61
2022/08/12 12:01:03;;;;;;;9.05;1.52;;;;;;;27.69;33.85;100404.81;1669533;85;21038;-61
2022/08/12 12:03:29;;;;;;;7.67;1.72;;;;;;;27.79;33.99;100409.55;1676599;84;21890;-60
2022/08/12 12:05:56;;;;;;;;;;;;;;;27.92;34.11;100410.88;1677907;84;20955;-60
2022/08/12 12:08:24;;;;;;;5.37;1.17;;;;;;;27.99;33.90;100403.34;1673916;84;20536;-60
2022/08/12 12:10:52;;;;;;;2.67;1.20;;;;;;;28.01;33.92;100404.52;1675603;85;21017;-61
2022/08/12 12:13:24;;;;;;;10.15;1.40;;;;;;;28.01;33.93;100409.89;1676588;84;20932;-61
2022/08/12 12:15:51;;;;;;;7.78;1.47;;;;;;;27.94;33.83;100412.91;1672251;85;21111;-61
2022/08/12 12:18:32;;;;;;;5.03;1.22;;;;;;;28.00;33.85;100410.88;1662982;84;21822;-61
2022/08/12 12:21:05;;;;;;;2.22;1.07;;;;;;;27.96;33.86;100406.87;1654383;85;20974;-61
2022/08/12 12:23:35;;;;;;;6.60;1.22;;;;;;;27.81;33.65;100407.55;1655808;85;20891;-61
2022/08/12 12:26:05;;;;;;;2.90;0.82;;;;;;;27.80;33.80;100397.80;1672294;84;20997;-61
2022/08/12 12:28:33;;;;;;;4.00;0.93;;;;;;;27.77;33.56;100403.48;1682725;83;21881;-61
2022/08/12 12:31:01;;;;;;;5.42;1.00;;;;;;;27.74;33.76;100403.81;1655523;85;20991;-61
2022/08/12 12:33:27;;;;;;;3.45;1.27;;;;;;;27.78;33.66;100402.45;1643362;85;21551;-62
2022/08/12 12:35:54;;;;;;;4.83;0.82;;;;;;;27.66;33.47;100406.49;1667000;84;20953;-61
2022/08/12 12:38:21;;;;;;;2.25;0.88;;;;;;;27.59;33.41;100406.33;1628036;86;21009;-60
2022/08/12 12:40:48;;;;;;;;;;;;;;;27.44;33.38;100401.27;1659979;85;20898;-60
2022/08/12 12:43:15;;;;;;;4.28;1.00;;;;;;;27.21;33.14;100399.72;1619699;86;20146;-61
2022/08/12 12:45:45;;;;;;;6.53;1.12;;;;;;;27.16;33.43;100404.73;1650132;85;20943;-61
2022/08/12 12:48:18;;;;;;;3.80;0.90;;;;;;;27.17;33.32;100403.75;1642859;85;21112;-60
2022/08/12 12:51:14;;;;;;;6.62;1.02;;;;;;;27.00;33.35;100410.36;1675552;84;21535;-62
2022/08/12 12:53:22;;;;;;;2.02;0.98;;;;;;;26.89;33.38;100401.27;1680003;84;21100;-61
2022/08/12 12:55:49;;;;;;;1.57;1.17;;;;;;;26.86;33.39;100397.58;1686670;83;20993;-61
2022/08/12 12:58:16;;;;;;;5.92;0.90;;;;;;;26.75;33.49;100403.23;1674876;84;20946;-60
2022/08/12 13:00:44;;;;;;;4.80;0.72;;;;;;;26.63;33.43;100416.55;1692972;83;20882;-61
2022/08/12 13:03:11;;;;;;;3.37;0.90;;;;;;;26.55;33.68;100406.15;1669671;84;20956;-61
2022/08/12 13:05:44;;;;;;;6.10;0.93;;;;;;;26.59;33.70;100396.45;1681019;84;21051;-60
2022/08/12 13:08:23;;;;;;;4.97;1.30;;;;;;;26.55;33.77;100407.48;1680500;84;20971;-60
2022/08/12 13:10:52;;;;;;;1.30;0.60;;;;;;;26.56;33.87;100405.14;1683496;83;20919;-61
2022/08/12 13:13:20;;;;;;;3.33;1.00;;;;;;;26.58;33.90;100409.48;1659396;86;20989;-61
2022/08/12 13:15:49;;;;;;;4.00;1.00;;;;;;;26.51;34.00;100400.75;1659314;84;20982;-60
2022/08/12 13:18:17;;;;;;;3.85;1.10;;;;;;;26.47;34.12;100402.05;1654499;85;21027;-61
2022/08/12 13:20:48;;;;;;;1.37;0.82;;;;;;;26.46;34.16;100402.20;1656053;85;20979;-61
2022/08/12 13:23:18;;;;;;;8.00;0.95;;;;;;;26.49;34.42;100397.36;1652392;85;20907;-61
2022/08/12 13:25:44;;;;;;;3.02;1.02;;;;;;;26.59;34.31;100391.93;1655045;84;21936;-60
2022/08/12 13:28:27;;;;;;;;;;;;;;;26.52;34.28;100391.74;1670689;85;21614;-60